Wales, AK

11:12 PM AKST on February 26, 2017 (GMT -0900)
Tin City LRRS | | Change Station

Elev 269 ft 65.56 °N, 167.92 °W | Updated 17 minutes ago

Overcast
Overcast
17 °F
Feels Like 4 °F
N
14
Wind Variable Wind from WNW

Today
High -- | Low -- °F
--% Chance of Precip.
Yesterday
High -- | Low -- °F
Precip. -- in
Pressure 30.07 in
Visibility 10.0 miles
Clouds Overcast 5500 ft
Windchill 4 °F
Dew Point 12 °F
Humidity 79%
Rainfall 0.00 in
Snow Depth Not available.
9:32 AM 7:18 PM
New Moon, 1% visible
METAR PATC 270755Z AUTO 30012KT 10SM OVC055 M08/M11 A3005 RMK AO2 SNB0659E0704 SLP182 T10811112
Pressure 30.07 in
Visibility 10.0 miles
Clouds Overcast 5500 ft
Windchill 4 °F
Dew Point 12 °F
Humidity 79%
Rainfall 0.00 in
Snow Depth Not available.
9:32 AM 7:18 PM
New Moon, 1% visible
METAR PATC 270755Z AUTO 30012KT 10SM OVC055 M08/M11 A3005 RMK AO2 SNB0659E0704 SLP182 T10811112

Get Your Daily Forecast Email!

Thanks for signing up!

Be on the lookout for a verification email in your inbox.

You'll start receiving the daily forecast at 8 AM.

×

10-Day Weather Forecast

Almanac

Astronomy

Feb. 26, 2017 Rise Set
Actual Time
Civil Twilight
Nautical Twilight
Astronomical Twilight
Moon
Length of Visible Light
Length of Day
Tomorrow will be .
, % of the Moon is Illuminated

Today's Extremes

State Highs State Lows

Community

WunderPhotos

Upload Photos

1,962,540 photos uploaded!

WunderBlog® & News

Nearby

Air Quality

  Air Quality AQ Index Pollutant
Not available.

Snow Depth

Station Depth Elevation

Earthquake Activity

City Distance Mag. Time & Date
Minimum magnitude displayed is 2.5.

Coastal Water Temperatures

Place Temperature

Stations

Nearby Weather Stations

Station Location Temp. Windchill Dew Point Humidity Wind Precip. Elev Updated Type
                   

Watches & Warnings

There are currently no watches in effect.